Terminal Aerodrome Forecast
Issued by NWS

Home | Current Version | Previous Version | Text Only | Print | Product List | Glossary On
Versions: 1 2 3 4 5 6 7 8 9 10 11 12 13 14 15 16 17 18 19 20
000
FTUS43 KLSX 300500
TAFSUS
TAF
KSUS 300538Z 3006/3106 34009KT P6SM BKN035
      TEMPO 3006/3009 FEW030
     FM301200 34009KT P6SM SCT025
     FM301700 VRB03KT P6SM SKC=

USA.gov is the U.S. government's official web portal to all federal, state and local government web resources and services.